sensor_id;sensor_type;location;lat;lon;timestamp;temperature;humidity
20672;DHT22;10495;50.922;4.760;2023-11-19T00:00:19;14.70;97.30
20672;DHT22;10495;50.922;4.760;2023-11-19T00:02:45;15.00;96.80
20672;DHT22;10495;50.922;4.760;2023-11-19T00:05:11;15.00;96.80
20672;DHT22;10495;50.922;4.760;2023-11-19T00:07:37;15.10;96.60
20672;DHT22;10495;50.922;4.760;2023-11-19T00:10:08;15.00;96.50
20672;DHT22;10495;50.922;4.760;2023-11-19T00:12:36;14.80;96.90
20672;DHT22;10495;50.922;4.760;2023-11-19T00:15:01;15.10;96.70
20672;DHT22;10495;50.922;4.760;2023-11-19T00:17:27;15.00;96.70
20672;DHT22;10495;50.922;4.760;2023-11-19T00:19:53;15.10;96.30
20672;DHT22;10495;50.922;4.760;2023-11-19T00:22:18;15.10;96.40
20672;DHT22;10495;50.922;4.760;2023-11-19T00:24:46;15.00;96.50
20672;DHT22;10495;50.922;4.760;2023-11-19T00:27:12;15.10;96.40
20672;DHT22;10495;50.922;4.760;2023-11-19T00:29:37;15.10;96.40
20672;DHT22;10495;50.922;4.760;2023-11-19T00:32:03;15.10;96.30
20672;DHT22;10495;50.922;4.760;2023-11-19T00:34:30;15.10;96.20
20672;DHT22;10495;50.922;4.760;2023-11-19T00:36:56;15.00;96.50
20672;DHT22;10495;50.922;4.760;2023-11-19T00:39:22;14.90;96.60
20672;DHT22;10495;50.922;4.760;2023-11-19T00:41:48;15.00;96.50
20672;DHT22;10495;50.922;4.760;2023-11-19T00:44:13;15.00;96.20
20672;DHT22;10495;50.922;4.760;2023-11-19T00:46:39;15.10;96.30
20672;DHT22;10495;50.922;4.760;2023-11-19T00:49:05;14.90;96.40
20672;DHT22;10495;50.922;4.760;2023-11-19T00:51:31;15.10;96.50
20672;DHT22;10495;50.922;4.760;2023-11-19T00:53:59;15.20;96.00
20672;DHT22;10495;50.922;4.760;2023-11-19T00:56:26;15.20;95.60
20672;DHT22;10495;50.922;4.760;2023-11-19T00:58:52;15.20;95.90
20672;DHT22;10495;50.922;4.760;2023-11-19T01:01:17;15.10;96.00
20672;DHT22;10495;50.922;4.760;2023-11-19T01:03:43;15.00;96.10
20672;DHT22;10495;50.922;4.760;2023-11-19T01:06:08;15.00;96.30
20672;DHT22;10495;50.922;4.760;2023-11-19T01:08:34;15.10;96.30
20672;DHT22;10495;50.922;4.760;2023-11-19T01:11:01;15.10;95.90
20672;DHT22;10495;50.922;4.760;2023-11-19T01:13:27;15.10;96.00
20672;DHT22;10495;50.922;4.760;2023-11-19T01:15:53;15.10;95.80
20672;DHT22;10495;50.922;4.760;2023-11-19T01:18:18;15.10;95.80
20672;DHT22;10495;50.922;4.760;2023-11-19T01:20:44;15.10;95.90
20672;DHT22;10495;50.922;4.760;2023-11-19T01:23:10;15.20;95.40
20672;DHT22;10495;50.922;4.760;2023-11-19T01:25:35;15.20;95.60
20672;DHT22;10495;50.922;4.760;2023-11-19T01:28:02;15.30;95.60
20672;DHT22;10495;50.922;4.760;2023-11-19T01:30:28;15.20;95.40
20672;DHT22;10495;50.922;4.760;2023-11-19T01:32:53;15.20;95.60
20672;DHT22;10495;50.922;4.760;2023-11-19T01:35:19;15.20;95.40
20672;DHT22;10495;50.922;4.760;2023-11-19T01:37:44;15.30;95.10
20672;DHT22;10495;50.922;4.760;2023-11-19T01:40:11;15.00;95.30
20672;DHT22;10495;50.922;4.760;2023-11-19T01:42:40;15.00;95.30
20672;DHT22;10495;50.922;4.760;2023-11-19T01:45:07;15.10;95.10
20672;DHT22;10495;50.922;4.760;2023-11-19T01:47:33;15.20;95.00
20672;DHT22;10495;50.922;4.760;2023-11-19T01:50:01;15.20;95.00
20672;DHT22;10495;50.922;4.760;2023-11-19T01:52:27;15.20;95.00
20672;DHT22;10495;50.922;4.760;2023-11-19T01:54:53;15.30;95.20
20672;DHT22;10495;50.922;4.760;2023-11-19T01:57:21;15.20;95.10
20672;DHT22;10495;50.922;4.760;2023-11-19T01:59:52;15.10;95.30
20672;DHT22;10495;50.922;4.760;2023-11-19T02:02:18;15.00;95.60
20672;DHT22;10495;50.922;4.760;2023-11-19T02:04:47;15.00;95.60
20672;DHT22;10495;50.922;4.760;2023-11-19T02:07:14;14.90;95.80
20672;DHT22;10495;50.922;4.760;2023-11-19T02:09:43;14.90;95.90
20672;DHT22;10495;50.922;4.760;2023-11-19T02:12:09;14.90;95.90
20672;DHT22;10495;50.922;4.760;2023-11-19T02:14:37;15.00;95.90
20672;DHT22;10495;50.922;4.760;2023-11-19T02:17:02;15.10;95.80
20672;DHT22;10495;50.922;4.760;2023-11-19T02:19:28;15.00;95.70
20672;DHT22;10495;50.922;4.760;2023-11-19T02:21:54;15.10;95.50
20672;DHT22;10495;50.922;4.760;2023-11-19T02:24:22;15.00;95.50
20672;DHT22;10495;50.922;4.760;2023-11-19T02:27:10;15.00;95.60
20672;DHT22;10495;50.922;4.760;2023-11-19T02:29:39;15.00;95.60
20672;DHT22;10495;50.922;4.760;2023-11-19T02:32:05;14.90;95.70
20672;DHT22;10495;50.922;4.760;2023-11-19T02:34:34;14.90;95.40
20672;DHT22;10495;50.922;4.760;2023-11-19T02:37:00;14.90;95.10
20672;DHT22;10495;50.922;4.760;2023-11-19T02:39:25;14.80;95.40
20672;DHT22;10495;50.922;4.760;2023-11-19T02:41:51;14.70;95.40
20672;DHT22;10495;50.922;4.760;2023-11-19T02:44:18;14.70;95.20
20672;DHT22;10495;50.922;4.760;2023-11-19T02:46:44;14.80;95.00
20672;DHT22;10495;50.922;4.760;2023-11-19T02:49:09;14.70;95.00
20672;DHT22;10495;50.922;4.760;2023-11-19T02:51:35;14.80;95.10
20672;DHT22;10495;50.922;4.760;2023-11-19T02:54:01;14.60;95.20
20672;DHT22;10495;50.922;4.760;2023-11-19T02:56:29;14.70;94.80
20672;DHT22;10495;50.922;4.760;2023-11-19T02:58:59;14.70;95.00
20672;DHT22;10495;50.922;4.760;2023-11-19T03:01:28;14.50;95.10
20672;DHT22;10495;50.922;4.760;2023-11-19T03:04:00;14.50;95.10
20672;DHT22;10495;50.922;4.760;2023-11-19T03:06:27;14.40;95.20
20672;DHT22;10495;50.922;4.760;2023-11-19T03:08:54;14.20;95.10
20672;DHT22;10495;50.922;4.760;2023-11-19T03:11:20;14.20;95.10
20672;DHT22;10495;50.922;4.760;2023-11-19T03:13:45;14.20;94.90
20672;DHT22;10495;50.922;4.760;2023-11-19T03:16:12;14.30;94.90
20672;DHT22;10495;50.922;4.760;2023-11-19T03:18:38;14.40;94.80
20672;DHT22;10495;50.922;4.760;2023-11-19T03:21:06;14.50;94.40
20672;DHT22;10495;50.922;4.760;2023-11-19T03:23:33;14.70;94.20
20672;DHT22;10495;50.922;4.760;2023-11-19T03:25:58;14.60;94.20
20672;DHT22;10495;50.922;4.760;2023-11-19T03:28:24;14.70;94.40
20672;DHT22;10495;50.922;4.760;2023-11-19T03:30:50;14.50;94.70
20672;DHT22;10495;50.922;4.760;2023-11-19T03:33:15;14.50;94.30
20672;DHT22;10495;50.922;4.760;2023-11-19T03:35:41;14.60;94.20
20672;DHT22;10495;50.922;4.760;2023-11-19T03:38:07;14.40;94.40
20672;DHT22;10495;50.922;4.760;2023-11-19T03:40:32;14.40;94.10
20672;DHT22;10495;50.922;4.760;2023-11-19T03:42:58;14.40;94.30
20672;DHT22;10495;50.922;4.760;2023-11-19T03:45:24;14.30;94.00
20672;DHT22;10495;50.922;4.760;2023-11-19T03:47:50;14.40;94.10
20672;DHT22;10495;50.922;4.760;2023-11-19T03:50:16;14.30;94.00
20672;DHT22;10495;50.922;4.760;2023-11-19T03:52:41;14.40;93.60
20672;DHT22;10495;50.922;4.760;2023-11-19T03:55:07;14.30;93.80
20672;DHT22;10495;50.922;4.760;2023-11-19T03:57:34;14.30;93.80
20672;DHT22;10495;50.922;4.760;2023-11-19T04:00:00;14.20;93.70
20672;DHT22;10495;50.922;4.760;2023-11-19T04:02:28;14.40;93.30
20672;DHT22;10495;50.922;4.760;2023-11-19T04:04:54;14.30;93.40
20672;DHT22;10495;50.922;4.760;2023-11-19T04:07:21;14.20;93.50
20672;DHT22;10495;50.922;4.760;2023-11-19T04:09:46;14.00;94.10
20672;DHT22;10495;50.922;4.760;2023-11-19T04:12:12;13.90;94.10
20672;DHT22;10495;50.922;4.760;2023-11-19T04:14:37;13.80;94.20
20672;DHT22;10495;50.922;4.760;2023-11-19T04:17:03;13.90;94.20
20672;DHT22;10495;50.922;4.760;2023-11-19T04:19:29;13.80;94.40
20672;DHT22;10495;50.922;4.760;2023-11-19T04:21:54;13.80;94.20
20672;DHT22;10495;50.922;4.760;2023-11-19T04:24:20;14.00;93.70
20672;DHT22;10495;50.922;4.760;2023-11-19T04:26:46;14.00;93.80
20672;DHT22;10495;50.922;4.760;2023-11-19T04:29:14;13.90;93.70
20672;DHT22;10495;50.922;4.760;2023-11-19T04:31:43;13.80;94.00
20672;DHT22;10495;50.922;4.760;2023-11-19T04:34:12;14.00;93.70
20672;DHT22;10495;50.922;4.760;2023-11-19T04:36:38;14.00;93.70
20672;DHT22;10495;50.922;4.760;2023-11-19T04:39:04;14.10;93.50
20672;DHT22;10495;50.922;4.760;2023-11-19T04:41:35;14.30;93.40
20672;DHT22;10495;50.922;4.760;2023-11-19T04:44:01;14.20;93.40
20672;DHT22;10495;50.922;4.760;2023-11-19T04:46:26;14.20;93.50
20672;DHT22;10495;50.922;4.760;2023-11-19T04:48:52;14.10;93.80
20672;DHT22;10495;50.922;4.760;2023-11-19T04:51:17;14.10;93.60
20672;DHT22;10495;50.922;4.760;2023-11-19T04:53:43;14.20;93.40
20672;DHT22;10495;50.922;4.760;2023-11-19T04:56:12;14.20;93.00
20672;DHT22;10495;50.922;4.760;2023-11-19T04:58:39;14.10;93.40
20672;DHT22;10495;50.922;4.760;2023-11-19T05:01:05;14.20;93.20
20672;DHT22;10495;50.922;4.760;2023-11-19T05:03:31;14.20;92.90
20672;DHT22;10495;50.922;4.760;2023-11-19T05:05:57;14.20;92.80
20672;DHT22;10495;50.922;4.760;2023-11-19T05:08:23;14.10;93.00
20672;DHT22;10495;50.922;4.760;2023-11-19T05:10:48;14.10;92.50
20672;DHT22;10495;50.922;4.760;2023-11-19T05:13:14;14.10;92.30
20672;DHT22;10495;50.922;4.760;2023-11-19T05:15:40;14.10;92.00
20672;DHT22;10495;50.922;4.760;2023-11-19T05:18:06;13.90;92.50
20672;DHT22;10495;50.922;4.760;2023-11-19T05:20:31;13.80;92.50
20672;DHT22;10495;50.922;4.760;2023-11-19T05:22:57;13.80;92.50
20672;DHT22;10495;50.922;4.760;2023-11-19T05:25:26;13.70;92.60
20672;DHT22;10495;50.922;4.760;2023-11-19T05:27:52;13.80;92.40
20672;DHT22;10495;50.922;4.760;2023-11-19T05:30:17;13.80;92.30
20672;DHT22;10495;50.922;4.760;2023-11-19T05:32:43;13.60;92.60
20672;DHT22;10495;50.922;4.760;2023-11-19T05:35:09;13.40;93.00
20672;DHT22;10495;50.922;4.760;2023-11-19T05:37:34;13.60;92.90
20672;DHT22;10495;50.922;4.760;2023-11-19T05:40:00;13.60;92.80
20672;DHT22;10495;50.922;4.760;2023-11-19T05:42:28;13.60;92.70
20672;DHT22;10495;50.922;4.760;2023-11-19T05:44:54;13.50;92.90
20672;DHT22;10495;50.922;4.760;2023-11-19T05:47:19;13.50;92.80
20672;DHT22;10495;50.922;4.760;2023-11-19T05:49:45;13.50;92.90
20672;DHT22;10495;50.922;4.760;2023-11-19T05:52:10;13.60;92.80
20672;DHT22;10495;50.922;4.760;2023-11-19T05:54:37;13.60;92.60
20672;DHT22;10495;50.922;4.760;2023-11-19T05:57:05;13.50;92.60
20672;DHT22;10495;50.922;4.760;2023-11-19T05:59:30;13.60;92.30
20672;DHT22;10495;50.922;4.760;2023-11-19T06:01:58;13.60;92.30
20672;DHT22;10495;50.922;4.760;2023-11-19T06:04:24;13.60;92.20
20672;DHT22;10495;50.922;4.760;2023-11-19T06:06:49;13.40;92.50
20672;DHT22;10495;50.922;4.760;2023-11-19T06:09:15;13.50;92.30
20672;DHT22;10495;50.922;4.760;2023-11-19T06:11:40;13.40;92.40
20672;DHT22;10495;50.922;4.760;2023-11-19T06:14:06;13.40;92.50
20672;DHT22;10495;50.922;4.760;2023-11-19T06:16:32;13.20;92.30
20672;DHT22;10495;50.922;4.760;2023-11-19T06:18:58;13.20;92.30
20672;DHT22;10495;50.922;4.760;2023-11-19T06:21:24;13.30;92.30
20672;DHT22;10495;50.922;4.760;2023-11-19T06:23:50;13.40;91.90
20672;DHT22;10495;50.922;4.760;2023-11-19T06:26:17;13.40;92.00
20672;DHT22;10495;50.922;4.760;2023-11-19T06:28:43;13.20;92.20
20672;DHT22;10495;50.922;4.760;2023-11-19T06:31:10;13.30;92.30
20672;DHT22;10495;50.922;4.760;2023-11-19T06:33:35;13.40;92.10
20672;DHT22;10495;50.922;4.760;2023-11-19T06:36:01;13.20;92.30
20672;DHT22;10495;50.922;4.760;2023-11-19T06:38:27;13.20;92.40
20672;DHT22;10495;50.922;4.760;2023-11-19T06:40:52;13.30;92.30
20672;DHT22;10495;50.922;4.760;2023-11-19T06:43:18;13.20;92.70
20672;DHT22;10495;50.922;4.760;2023-11-19T06:45:43;13.30;92.30
20672;DHT22;10495;50.922;4.760;2023-11-19T06:48:09;13.00;92.90
20672;DHT22;10495;50.922;4.760;2023-11-19T06:50:35;13.00;92.90
20672;DHT22;10495;50.922;4.760;2023-11-19T06:53:00;13.10;92.70
20672;DHT22;10495;50.922;4.760;2023-11-19T06:55:26;13.00;92.70
20672;DHT22;10495;50.922;4.760;2023-11-19T06:57:52;13.00;92.90
20672;DHT22;10495;50.922;4.760;2023-11-19T07:00:18;12.90;92.90
20672;DHT22;10495;50.922;4.760;2023-11-19T07:02:44;12.90;93.00
20672;DHT22;10495;50.922;4.760;2023-11-19T07:05:09;12.90;93.10
20672;DHT22;10495;50.922;4.760;2023-11-19T07:07:35;12.90;93.10
20672;DHT22;10495;50.922;4.760;2023-11-19T07:10:01;12.90;93.00
20672;DHT22;10495;50.922;4.760;2023-11-19T07:12:27;12.90;92.90
20672;DHT22;10495;50.922;4.760;2023-11-19T07:14:56;13.00;92.80
20672;DHT22;10495;50.922;4.760;2023-11-19T07:17:22;12.80;93.20
20672;DHT22;10495;50.922;4.760;2023-11-19T07:19:50;12.80;93.10
20672;DHT22;10495;50.922;4.760;2023-11-19T07:22:17;12.80;93.00
20672;DHT22;10495;50.922;4.760;2023-11-19T07:24:42;12.80;93.30
20672;DHT22;10495;50.922;4.760;2023-11-19T07:27:08;12.80;93.20
20672;DHT22;10495;50.922;4.760;2023-11-19T07:29:34;13.30;92.80
20672;DHT22;10495;50.922;4.760;2023-11-19T07:32:00;13.20;92.70
20672;DHT22;10495;50.922;4.760;2023-11-19T07:34:27;13.10;92.60
20672;DHT22;10495;50.922;4.760;2023-11-19T07:36:53;13.10;92.40
20672;DHT22;10495;50.922;4.760;2023-11-19T07:39:19;13.20;92.30
20672;DHT22;10495;50.922;4.760;2023-11-19T07:41:46;12.90;92.90
20672;DHT22;10495;50.922;4.760;2023-11-19T07:44:11;13.00;93.00
20672;DHT22;10495;50.922;4.760;2023-11-19T07:46:37;12.90;93.00
20672;DHT22;10495;50.922;4.760;2023-11-19T07:49:03;12.90;93.10
20672;DHT22;10495;50.922;4.760;2023-11-19T07:51:28;13.00;93.00
20672;DHT22;10495;50.922;4.760;2023-11-19T07:53:54;13.00;92.90
20672;DHT22;10495;50.922;4.760;2023-11-19T07:56:19;13.10;92.90
20672;DHT22;10495;50.922;4.760;2023-11-19T07:58:45;12.90;93.10
20672;DHT22;10495;50.922;4.760;2023-11-19T08:01:10;12.90;93.10
20672;DHT22;10495;50.922;4.760;2023-11-19T08:03:36;13.00;93.10
20672;DHT22;10495;50.922;4.760;2023-11-19T08:06:03;13.30;92.50
20672;DHT22;10495;50.922;4.760;2023-11-19T08:08:29;13.50;92.30
20672;DHT22;10495;50.922;4.760;2023-11-19T08:10:56;13.40;92.10
20672;DHT22;10495;50.922;4.760;2023-11-19T08:13:23;13.40;92.50
20672;DHT22;10495;50.922;4.760;2023-11-19T08:15:49;13.50;92.40
20672;DHT22;10495;50.922;4.760;2023-11-19T08:18:14;13.60;92.10
20672;DHT22;10495;50.922;4.760;2023-11-19T08:20:40;13.70;91.90
20672;DHT22;10495;50.922;4.760;2023-11-19T08:23:06;13.90;91.90
20672;DHT22;10495;50.922;4.760;2023-11-19T08:25:33;13.90;91.60
20672;DHT22;10495;50.922;4.760;2023-11-19T08:27:59;14.00;91.80
20672;DHT22;10495;50.922;4.760;2023-11-19T08:30:25;14.00;91.40
20672;DHT22;10495;50.922;4.760;2023-11-19T08:32:51;14.00;91.50
20672;DHT22;10495;50.922;4.760;2023-11-19T08:35:16;14.30;91.30
20672;DHT22;10495;50.922;4.760;2023-11-19T08:37:42;14.20;91.00
20672;DHT22;10495;50.922;4.760;2023-11-19T08:40:09;14.40;90.90
20672;DHT22;10495;50.922;4.760;2023-11-19T08:42:34;14.60;90.70
20672;DHT22;10495;50.922;4.760;2023-11-19T08:45:00;14.80;90.40
20672;DHT22;10495;50.922;4.760;2023-11-19T08:47:26;14.90;90.20
20672;DHT22;10495;50.922;4.760;2023-11-19T08:49:51;15.00;89.90
20672;DHT22;10495;50.922;4.760;2023-11-19T08:52:20;15.10;89.50
20672;DHT22;10495;50.922;4.760;2023-11-19T08:54:46;15.30;88.10
20672;DHT22;10495;50.922;4.760;2023-11-19T08:57:13;15.20;88.80
20672;DHT22;10495;50.922;4.760;2023-11-19T08:59:38;15.40;88.80
20672;DHT22;10495;50.922;4.760;2023-11-19T09:02:05;15.50;88.50
20672;DHT22;10495;50.922;4.760;2023-11-19T09:04:32;15.40;87.90
20672;DHT22;10495;50.922;4.760;2023-11-19T09:06:58;15.40;87.30
20672;DHT22;10495;50.922;4.760;2023-11-19T09:09:23;14.90;88.20
20672;DHT22;10495;50.922;4.760;2023-11-19T09:11:49;14.90;88.50
20672;DHT22;10495;50.922;4.760;2023-11-19T09:14:15;14.80;88.00
20672;DHT22;10495;50.922;4.760;2023-11-19T09:16:41;14.90;87.90
20672;DHT22;10495;50.922;4.760;2023-11-19T09:19:06;14.90;88.20
20672;DHT22;10495;50.922;4.760;2023-11-19T09:21:32;14.80;88.50
20672;DHT22;10495;50.922;4.760;2023-11-19T09:23:59;14.70;89.70
20672;DHT22;10495;50.922;4.760;2023-11-19T09:26:25;14.50;90.40
20672;DHT22;10495;50.922;4.760;2023-11-19T09:28:51;14.40;90.70
20672;DHT22;10495;50.922;4.760;2023-11-19T09:31:17;14.30;90.90
20672;DHT22;10495;50.922;4.760;2023-11-19T09:33:43;14.20;91.00
20672;DHT22;10495;50.922;4.760;2023-11-19T09:36:09;14.20;91.20
20672;DHT22;10495;50.922;4.760;2023-11-19T09:38:39;14.40;90.90
20672;DHT22;10495;50.922;4.760;2023-11-19T09:41:05;14.20;90.80
20672;DHT22;10495;50.922;4.760;2023-11-19T09:43:34;14.30;90.70
20672;DHT22;10495;50.922;4.760;2023-11-19T09:46:05;14.40;90.30
20672;DHT22;10495;50.922;4.760;2023-11-19T09:48:36;14.60;90.00
20672;DHT22;10495;50.922;4.760;2023-11-19T09:51:03;14.60;89.30
20672;DHT22;10495;50.922;4.760;2023-11-19T09:53:29;14.70;89.00
20672;DHT22;10495;50.922;4.760;2023-11-19T09:55:55;14.70;89.10
20672;DHT22;10495;50.922;4.760;2023-11-19T09:58:21;14.60;89.50
20672;DHT22;10495;50.922;4.760;2023-11-19T10:00:47;14.50;90.10
20672;DHT22;10495;50.922;4.760;2023-11-19T10:03:14;14.30;90.40
20672;DHT22;10495;50.922;4.760;2023-11-19T10:05:39;14.60;90.40
20672;DHT22;10495;50.922;4.760;2023-11-19T10:08:06;14.70;90.50
20672;DHT22;10495;50.922;4.760;2023-11-19T10:10:33;14.70;90.20
20672;DHT22;10495;50.922;4.760;2023-11-19T10:13:00;14.90;90.00
20672;DHT22;10495;50.922;4.760;2023-11-19T10:15:26;15.10;89.50
20672;DHT22;10495;50.922;4.760;2023-11-19T10:17:55;15.10;89.80
20672;DHT22;10495;50.922;4.760;2023-11-19T10:20:22;15.00;89.60
20672;DHT22;10495;50.922;4.760;2023-11-19T10:22:48;15.20;89.60
20672;DHT22;10495;50.922;4.760;2023-11-19T10:25:27;15.20;89.60
20672;DHT22;10495;50.922;4.760;2023-11-19T10:27:54;15.30;89.40
20672;DHT22;10495;50.922;4.760;2023-11-19T10:30:24;15.30;89.20
20672;DHT22;10495;50.922;4.760;2023-11-19T10:35:36;15.40;89.30
20672;DHT22;10495;50.922;4.760;2023-11-19T10:38:22;15.40;89.40
20672;DHT22;10495;50.922;4.760;2023-11-19T10:40:49;15.60;89.30
20672;DHT22;10495;50.922;4.760;2023-11-19T10:43:19;15.80;88.10
20672;DHT22;10495;50.922;4.760;2023-11-19T10:45:49;15.50;88.20
20672;DHT22;10495;50.922;4.760;2023-11-19T10:48:15;15.60;89.20
20672;DHT22;10495;50.922;4.760;2023-11-19T10:50:41;15.40;88.90
20672;DHT22;10495;50.922;4.760;2023-11-19T10:53:09;15.50;89.20
20672;DHT22;10495;50.922;4.760;2023-11-19T10:55:37;15.70;87.90
20672;DHT22;10495;50.922;4.760;2023-11-19T10:58:16;15.50;88.60
20672;DHT22;10495;50.922;4.760;2023-11-19T11:00:51;15.50;89.30
20672;DHT22;10495;50.922;4.760;2023-11-19T11:03:18;15.40;88.10
20672;DHT22;10495;50.922;4.760;2023-11-19T11:05:48;15.50;87.50
20672;DHT22;10495;50.922;4.760;2023-11-19T11:08:15;15.40;86.80
20672;DHT22;10495;50.922;4.760;2023-11-19T11:10:45;15.20;87.60
20672;DHT22;10495;50.922;4.760;2023-11-19T11:13:13;15.30;88.10
20672;DHT22;10495;50.922;4.760;2023-11-19T11:15:39;15.20;87.90
20672;DHT22;10495;50.922;4.760;2023-11-19T11:18:08;15.00;88.60
20672;DHT22;10495;50.922;4.760;2023-11-19T11:20:34;15.20;88.10
20672;DHT22;10495;50.922;4.760;2023-11-19T11:26:05;15.30;87.90
20672;DHT22;10495;50.922;4.760;2023-11-19T11:28:43;15.30;87.30
20672;DHT22;10495;50.922;4.760;2023-11-19T11:34:38;15.50;86.50
20672;DHT22;10495;50.922;4.760;2023-11-19T11:37:30;15.20;86.60
20672;DHT22;10495;50.922;4.760;2023-11-19T11:39:57;15.10;87.30
20672;DHT22;10495;50.922;4.760;2023-11-19T11:44:58;15.20;88.20
20672;DHT22;10495;50.922;4.760;2023-11-19T11:47:25;15.50;86.90
20672;DHT22;10495;50.922;4.760;2023-11-19T11:49:52;15.30;87.10
20672;DHT22;10495;50.922;4.760;2023-11-19T11:52:17;15.40;86.80
20672;DHT22;10495;50.922;4.760;2023-11-19T11:54:44;15.50;86.50
20672;DHT22;10495;50.922;4.760;2023-11-19T11:57:14;15.50;85.80
20672;DHT22;10495;50.922;4.760;2023-11-19T11:59:43;15.60;85.80
20672;DHT22;10495;50.922;4.760;2023-11-19T12:02:16;15.40;86.40
20672;DHT22;10495;50.922;4.760;2023-11-19T12:04:43;15.40;86.90
20672;DHT22;10495;50.922;4.760;2023-11-19T12:07:13;15.30;86.30
20672;DHT22;10495;50.922;4.760;2023-11-19T12:09:46;15.30;86.90
20672;DHT22;10495;50.922;4.760;2023-11-19T12:12:23;15.30;87.40
20672;DHT22;10495;50.922;4.760;2023-11-19T12:15:08;15.40;87.50
20672;DHT22;10495;50.922;4.760;2023-11-19T12:17:42;15.40;88.00
20672;DHT22;10495;50.922;4.760;2023-11-19T12:20:10;15.50;87.80
20672;DHT22;10495;50.922;4.760;2023-11-19T12:22:41;15.70;87.10
20672;DHT22;10495;50.922;4.760;2023-11-19T12:25:08;15.60;87.00
20672;DHT22;10495;50.922;4.760;2023-11-19T12:27:35;15.70;87.20
20672;DHT22;10495;50.922;4.760;2023-11-19T12:30:04;15.80;86.70
20672;DHT22;10495;50.922;4.760;2023-11-19T12:32:45;16.00;85.10
20672;DHT22;10495;50.922;4.760;2023-11-19T12:35:12;16.20;84.70
20672;DHT22;10495;50.922;4.760;2023-11-19T12:40:30;15.90;83.30
20672;DHT22;10495;50.922;4.760;2023-11-19T12:42:56;15.50;85.10
20672;DHT22;10495;50.922;4.760;2023-11-19T12:45:22;15.50;86.60
20672;DHT22;10495;50.922;4.760;2023-11-19T12:47:49;15.60;86.00
20672;DHT22;10495;50.922;4.760;2023-11-19T12:50:17;15.50;86.10
20672;DHT22;10495;50.922;4.760;2023-11-19T12:52:58;15.60;86.00
20672;DHT22;10495;50.922;4.760;2023-11-19T12:55:25;15.40;86.80
20672;DHT22;10495;50.922;4.760;2023-11-19T12:57:51;15.40;87.10
20672;DHT22;10495;50.922;4.760;2023-11-19T13:00:24;15.50;87.00
20672;DHT22;10495;50.922;4.760;2023-11-19T13:02:55;15.50;86.00
20672;DHT22;10495;50.922;4.760;2023-11-19T13:08:08;15.60;85.90
20672;DHT22;10495;50.922;4.760;2023-11-19T13:10:53;15.40;85.70
20672;DHT22;10495;50.922;4.760;2023-11-19T13:13:21;15.20;85.50
20672;DHT22;10495;50.922;4.760;2023-11-19T13:15:47;15.20;86.10
20672;DHT22;10495;50.922;4.760;2023-11-19T13:18:16;15.20;86.30
20672;DHT22;10495;50.922;4.760;2023-11-19T13:20:41;15.30;86.30
20672;DHT22;10495;50.922;4.760;2023-11-19T13:23:08;15.50;85.10
20672;DHT22;10495;50.922;4.760;2023-11-19T13:25:33;15.50;85.00
20672;DHT22;10495;50.922;4.760;2023-11-19T13:28:00;15.10;86.20
20672;DHT22;10495;50.922;4.760;2023-11-19T13:30:27;15.20;87.30
20672;DHT22;10495;50.922;4.760;2023-11-19T13:32:54;15.10;87.40
20672;DHT22;10495;50.922;4.760;2023-11-19T13:35:21;15.30;86.50
20672;DHT22;10495;50.922;4.760;2023-11-19T13:37:52;15.30;86.00
20672;DHT22;10495;50.922;4.760;2023-11-19T13:40:19;15.30;86.40
20672;DHT22;10495;50.922;4.760;2023-11-19T13:42:45;15.30;85.70
20672;DHT22;10495;50.922;4.760;2023-11-19T13:45:12;15.20;85.10
20672;DHT22;10495;50.922;4.760;2023-11-19T13:47:39;15.20;85.50
20672;DHT22;10495;50.922;4.760;2023-11-19T13:50:11;15.30;85.70
20672;DHT22;10495;50.922;4.760;2023-11-19T13:52:37;15.40;85.30
20672;DHT22;10495;50.922;4.760;2023-11-19T13:55:06;15.30;85.80
20672;DHT22;10495;50.922;4.760;2023-11-19T13:57:32;15.30;85.40
20672;DHT22;10495;50.922;4.760;2023-11-19T13:59:57;15.10;85.90
20672;DHT22;10495;50.922;4.760;2023-11-19T14:02:23;15.00;86.00
20672;DHT22;10495;50.922;4.760;2023-11-19T14:04:49;15.00;86.20
20672;DHT22;10495;50.922;4.760;2023-11-19T14:07:14;14.70;87.10
20672;DHT22;10495;50.922;4.760;2023-11-19T14:09:42;14.60;87.70
20672;DHT22;10495;50.922;4.760;2023-11-19T14:12:07;14.50;88.40
20672;DHT22;10495;50.922;4.760;2023-11-19T14:14:35;14.70;88.00
20672;DHT22;10495;50.922;4.760;2023-11-19T14:17:02;14.80;87.20
20672;DHT22;10495;50.922;4.760;2023-11-19T14:19:29;14.60;88.20
20672;DHT22;10495;50.922;4.760;2023-11-19T14:21:55;14.50;88.40
20672;DHT22;10495;50.922;4.760;2023-11-19T14:24:20;14.30;89.50
20672;DHT22;10495;50.922;4.760;2023-11-19T14:26:46;14.30;89.80
20672;DHT22;10495;50.922;4.760;2023-11-19T14:29:17;14.40;89.40
20672;DHT22;10495;50.922;4.760;2023-11-19T14:31:42;14.60;89.30
20672;DHT22;10495;50.922;4.760;2023-11-19T14:34:08;14.70;88.90
20672;DHT22;10495;50.922;4.760;2023-11-19T14:36:34;14.70;88.90
20672;DHT22;10495;50.922;4.760;2023-11-19T14:39:00;14.80;89.10
20672;DHT22;10495;50.922;4.760;2023-11-19T14:41:26;14.70;88.90
20672;DHT22;10495;50.922;4.760;2023-11-19T14:43:51;14.70;89.40
20672;DHT22;10495;50.922;4.760;2023-11-19T14:46:17;14.70;89.40
20672;DHT22;10495;50.922;4.760;2023-11-19T14:48:43;14.80;89.40
20672;DHT22;10495;50.922;4.760;2023-11-19T14:51:09;14.80;89.50
20672;DHT22;10495;50.922;4.760;2023-11-19T14:53:34;14.70;90.00
20672;DHT22;10495;50.922;4.760;2023-11-19T14:56:00;14.70;90.00
20672;DHT22;10495;50.922;4.760;2023-11-19T14:58:26;14.80;90.10
20672;DHT22;10495;50.922;4.760;2023-11-19T15:00:52;14.60;90.20
20672;DHT22;10495;50.922;4.760;2023-11-19T15:03:18;14.50;90.60
20672;DHT22;10495;50.922;4.760;2023-11-19T15:05:48;14.30;90.60
20672;DHT22;10495;50.922;4.760;2023-11-19T15:08:13;14.20;91.10
20672;DHT22;10495;50.922;4.760;2023-11-19T15:10:42;14.10;91.10
20672;DHT22;10495;50.922;4.760;2023-11-19T15:13:07;14.00;91.00
20672;DHT22;10495;50.922;4.760;2023-11-19T15:15:34;14.20;90.90
20672;DHT22;10495;50.922;4.760;2023-11-19T15:18:00;14.20;90.80
20672;DHT22;10495;50.922;4.760;2023-11-19T15:20:27;14.20;90.30
20672;DHT22;10495;50.922;4.760;2023-11-19T15:22:58;14.60;90.10
20672;DHT22;10495;50.922;4.760;2023-11-19T15:25:24;14.80;89.00
20672;DHT22;10495;50.922;4.760;2023-11-19T15:27:50;14.70;89.20
20672;DHT22;10495;50.922;4.760;2023-11-19T15:30:16;14.50;89.70
20672;DHT22;10495;50.922;4.760;2023-11-19T15:32:42;14.50;89.00
20672;DHT22;10495;50.922;4.760;2023-11-19T15:35:09;14.20;89.90
20672;DHT22;10495;50.922;4.760;2023-11-19T15:37:35;14.40;89.80
20672;DHT22;10495;50.922;4.760;2023-11-19T15:40:01;14.40;89.80
20672;DHT22;10495;50.922;4.760;2023-11-19T15:42:29;14.60;89.20
20672;DHT22;10495;50.922;4.760;2023-11-19T15:44:55;14.60;88.90